createdAt,value
2018-01-23T00:00:31.910Z,44.50
2018-01-23T00:03:06.608Z,13.90
2018-01-23T00:05:41.600Z,30.80
2018-01-23T00:08:16.562Z,42.95
2018-01-23T00:10:51.578Z,26.83
2018-01-23T00:13:26.623Z,35.07
2018-01-23T00:16:02.471Z,47.42
2018-01-23T00:18:37.078Z,29.27
2018-01-23T00:21:12.275Z,14.48
2018-01-23T00:23:47.107Z,34.13
2018-01-23T00:26:22.023Z,39.10
2018-01-23T00:28:57.077Z,30.63
2018-01-23T00:31:32.283Z,39.27
2018-01-23T00:34:07.412Z,39.27
2018-01-23T00:36:41.919Z,34.83
2018-01-23T00:39:17.015Z,24.97
2018-01-23T00:41:51.663Z,28.73
2018-01-23T00:44:26.348Z,33.63
2018-01-23T00:47:02.409Z,25.83
2018-01-23T00:49:37.024Z,26.97
2018-01-23T00:52:12.287Z,33.37
2018-01-23T00:54:47.183Z,31.00
2018-01-23T00:57:22.448Z,39.40
2018-01-23T00:59:57.792Z,32.30
2018-01-23T01:02:33.155Z,31.35
2018-01-23T01:05:07.771Z,33.38
2018-01-23T01:07:42.974Z,34.95
2018-01-23T01:10:18.421Z,26.62
2018-01-23T01:12:53.524Z,32.80
2018-01-23T01:15:28.375Z,29.17
2018-01-23T01:18:03.555Z,25.50
2018-01-23T01:20:38.303Z,24.53
2018-01-23T01:23:13.541Z,26.85
2018-01-23T01:25:48.447Z,25.77
2018-01-23T01:28:23.388Z,21.83
2018-01-23T01:30:58.109Z,28.15
2018-01-23T01:33:33.391Z,25.47
2018-01-23T01:36:08.471Z,19.85
2018-01-23T01:38:43.532Z,25.77
2018-01-23T01:41:18.530Z,26.10
2018-01-23T01:43:53.408Z,33.70
2018-01-23T01:46:28.408Z,23.60
2018-01-23T01:49:03.890Z,31.30
2018-01-23T01:51:38.374Z,24.90
2018-01-23T01:54:13.718Z,30.93
2018-01-23T01:56:48.387Z,21.13
2018-01-23T01:59:23.220Z,34.83
2018-01-23T02:01:58.457Z,25.50
2018-01-23T02:04:33.465Z,35.40
2018-01-23T02:07:08.529Z,23.60
2018-01-23T02:09:43.137Z,29.50
2018-01-23T02:12:18.512Z,36.08
2018-01-23T02:14:53.469Z,41.10
2018-01-23T02:17:28.351Z,25.20
2018-01-23T02:20:03.435Z,32.10
2018-01-23T02:22:38.026Z,32.67
2018-01-23T02:25:12.572Z,32.73
2018-01-23T02:27:47.809Z,26.13
2018-01-23T02:30:22.295Z,39.40
2018-01-23T02:32:56.611Z,30.33
2018-01-23T02:35:31.616Z,32.23
2018-01-23T02:38:06.726Z,28.55
2018-01-23T02:40:41.687Z,31.67
2018-01-23T02:43:16.682Z,29.70
2018-01-23T02:45:51.734Z,25.33
2018-01-23T02:48:26.619Z,23.83
2018-01-23T02:51:02.790Z,29.77
2018-01-23T02:53:37.666Z,28.33
2018-01-23T02:56:12.174Z,30.00
2018-01-23T02:58:46.615Z,34.83
2018-01-23T03:01:21.519Z,27.77
2018-01-23T03:03:56.619Z,26.10
2018-01-23T03:06:31.598Z,18.07
2018-01-23T03:09:06.135Z,29.17
2018-01-23T03:11:41.352Z,30.02
2018-01-23T03:14:16.433Z,31.27
2018-01-23T03:16:51.298Z,23.17
2018-01-23T03:19:26.330Z,25.88
2018-01-23T03:22:00.788Z,39.33
2018-01-23T03:24:35.672Z,18.90
2018-01-23T03:27:10.877Z,27.43
2018-01-23T03:29:45.542Z,30.37
2018-01-23T03:32:20.494Z,22.50
2018-01-23T03:34:55.510Z,25.63
2018-01-23T03:37:30.517Z,30.80
2018-01-23T03:40:05.769Z,25.20
2018-01-23T03:42:40.658Z,26.70
2018-01-23T03:45:15.842Z,24.13
2018-01-23T03:47:50.921Z,22.40
2018-01-23T03:50:25.695Z,24.63
2018-01-23T03:53:00.322Z,25.77
2018-01-23T03:55:35.550Z,28.43
2018-01-23T03:58:10.782Z,32.83
2018-01-23T04:00:45.534Z,16.13
2018-01-23T04:03:20.602Z,27.20
2018-01-23T04:05:55.695Z,24.50
2018-01-23T04:08:30.747Z,32.17
2018-01-23T04:11:05.976Z,30.10
2018-01-23T04:13:40.803Z,21.20
2018-01-23T04:16:15.592Z,35.58
2018-01-23T04:18:52.462Z,24.00
2018-01-23T04:21:27.562Z,30.80
2018-01-23T04:24:03.062Z,37.70
2018-01-23T04:26:38.590Z,27.47
2018-01-23T04:29:13.987Z,42.38
2018-01-23T04:31:48.394Z,30.30
2018-01-23T04:34:23.578Z,38.57
2018-01-23T04:36:58.718Z,38.87
2018-01-23T04:39:33.063Z,75.07
2018-01-23T04:42:07.882Z,49.87
2018-01-23T04:44:42.879Z,39.40
2018-01-23T04:47:18.245Z,55.43
2018-01-23T04:49:52.982Z,49.80
2018-01-23T04:52:27.756Z,39.50
2018-01-23T04:55:03.039Z,36.47
2018-01-23T04:57:37.759Z,29.40
2018-01-23T05:00:12.766Z,29.87
2018-01-23T05:02:47.878Z,29.23
2018-01-23T05:05:23.164Z,34.70
2018-01-23T05:07:57.707Z,35.33
2018-01-23T05:10:32.566Z,33.60
2018-01-23T05:13:07.719Z,43.13
2018-01-23T05:15:42.742Z,36.90
2018-01-23T05:18:18.029Z,33.40
2018-01-23T05:20:52.762Z,35.67
2018-01-23T05:23:27.866Z,31.43
2018-01-23T05:26:03.136Z,21.10
2018-01-23T05:28:37.918Z,39.43
2018-01-23T05:31:12.875Z,36.20
2018-01-23T05:33:47.914Z,34.43
2018-01-23T05:36:22.767Z,37.60
2018-01-23T05:38:57.813Z,29.50
2018-01-23T05:41:32.797Z,34.70
2018-01-23T05:44:07.875Z,31.77
2018-01-23T05:46:42.960Z,36.23
2018-01-23T05:49:17.943Z,32.45
2018-01-23T05:51:52.946Z,29.63
2018-01-23T05:54:27.890Z,33.30
2018-01-23T05:57:03.202Z,28.05
2018-01-23T05:59:37.842Z,39.30
2018-01-23T06:02:12.920Z,36.20
2018-01-23T06:04:47.358Z,35.70
2018-01-23T06:07:22.859Z,41.25
2018-01-23T06:09:58.034Z,32.37
2018-01-23T06:12:32.876Z,32.50
2018-01-23T06:15:08.221Z,38.93
2018-01-23T06:17:43.285Z,40.20
2018-01-23T06:20:18.453Z,40.93
2018-01-23T06:22:53.323Z,43.33
2018-01-23T06:25:28.437Z,38.40
2018-01-23T06:28:03.429Z,38.00
2018-01-23T06:30:38.328Z,39.00
2018-01-23T06:33:13.176Z,43.67
2018-01-23T06:35:48.493Z,45.37
2018-01-23T06:38:23.389Z,36.70
2018-01-23T06:41:01.675Z,29.40
2018-01-23T06:43:36.942Z,35.42
2018-01-23T06:46:12.014Z,37.38
2018-01-23T06:48:47.002Z,35.10
2018-01-23T06:51:22.004Z,39.37
2018-01-23T06:53:57.227Z,38.40
2018-01-23T06:56:32.158Z,31.20
2018-01-23T06:59:06.768Z,33.78
2018-01-23T07:01:42.096Z,31.93
2018-01-23T07:04:17.352Z,38.77
2018-01-23T07:06:51.892Z,39.67
2018-01-23T07:09:26.563Z,35.57
2018-01-23T07:12:01.443Z,39.47
2018-01-23T07:14:36.513Z,32.57
2018-01-23T07:17:11.575Z,40.72
2018-01-23T07:19:46.457Z,29.50
2018-01-23T07:22:21.357Z,44.53
2018-01-23T07:24:56.351Z,38.00
2018-01-23T07:27:31.006Z,51.93
2018-01-23T07:30:06.130Z,45.07
2018-01-23T07:32:41.050Z,43.37
2018-01-23T07:35:16.342Z,38.13
2018-01-23T07:37:51.323Z,36.40
2018-01-23T07:40:26.514Z,43.63
2018-01-23T07:43:03.616Z,39.38
2018-01-23T07:45:38.202Z,35.37
2018-01-23T07:48:13.151Z,37.87
2018-01-23T07:50:48.213Z,35.03
2018-01-23T07:53:23.446Z,43.13
2018-01-23T07:55:58.289Z,27.63
2018-01-23T07:58:33.282Z,42.60
2018-01-23T08:01:08.356Z,39.70
2018-01-23T08:03:43.222Z,41.17
2018-01-23T08:06:18.226Z,27.53
2018-01-23T08:08:53.241Z,34.88
2018-01-23T08:11:28.280Z,42.97
2018-01-23T08:14:03.559Z,37.83
2018-01-23T08:16:38.277Z,33.30
2018-01-23T08:19:13.267Z,32.47
2018-01-23T08:21:48.208Z,37.90
2018-01-23T08:24:23.259Z,32.47
2018-01-23T08:26:57.894Z,39.03
2018-01-23T08:29:33.187Z,30.55
2018-01-23T08:32:08.377Z,33.43
2018-01-23T08:34:42.867Z,33.43
2018-01-23T08:37:17.617Z,37.77
2018-01-23T08:39:52.784Z,31.57
2018-01-23T08:42:27.775Z,34.47
2018-01-23T08:45:03.700Z,26.95
2018-01-23T08:47:38.731Z,36.80
2018-01-23T08:50:13.701Z,34.75
2018-01-23T08:52:48.662Z,32.50
2018-01-23T08:55:23.331Z,40.58
2018-01-23T08:57:58.386Z,32.47
2018-01-23T09:00:33.152Z,34.05
2018-01-23T09:03:08.291Z,33.50
2018-01-23T09:05:43.298Z,35.07
2018-01-23T09:08:18.493Z,36.35
2018-01-23T09:10:53.270Z,40.85
2018-01-23T09:13:28.224Z,36.23
2018-01-23T09:16:03.751Z,34.30
2018-01-23T09:18:39.301Z,38.95
2018-01-23T09:21:13.888Z,43.33
2018-01-23T09:23:49.299Z,28.62
2018-01-23T09:26:24.304Z,31.48
2018-01-23T09:28:59.647Z,31.40
2018-01-23T09:31:34.610Z,49.80
2018-01-23T09:34:09.827Z,33.10
2018-01-23T09:36:44.819Z,40.43
2018-01-23T09:39:19.826Z,29.67
2018-01-23T09:41:54.942Z,37.13
2018-01-23T09:44:30.278Z,34.60
2018-01-23T09:47:05.289Z,37.67
2018-01-23T09:49:39.938Z,36.80
2018-01-23T09:52:14.923Z,37.30
2018-01-23T09:54:49.727Z,30.90
2018-01-23T09:57:24.542Z,28.87
2018-01-23T09:59:59.858Z,30.80
2018-01-23T10:02:34.919Z,32.00
2018-01-23T10:05:10.744Z,37.92
2018-01-23T10:07:45.591Z,26.33
2018-01-23T10:10:20.649Z,33.10
2018-01-23T10:12:55.627Z,27.73
2018-01-23T10:15:30.953Z,30.23
2018-01-23T10:18:05.827Z,29.90
2018-01-23T10:20:40.614Z,28.20
2018-01-23T10:23:15.838Z,32.40
2018-01-23T10:25:50.660Z,36.73
2018-01-23T10:28:25.637Z,30.03
2018-01-23T10:31:00.870Z,33.70
2018-01-23T10:33:35.767Z,29.63
2018-01-23T10:36:10.909Z,34.90
2018-01-23T10:38:46.639Z,30.47
2018-01-23T10:41:21.583Z,28.47
2018-01-23T10:43:56.679Z,28.33
2018-01-23T10:46:31.695Z,31.77
2018-01-23T10:49:06.962Z,32.30
2018-01-23T10:51:41.642Z,36.63
2018-01-23T10:54:16.800Z,33.22
2018-01-23T10:56:51.669Z,45.00
2018-01-23T10:59:26.577Z,36.17
2018-01-23T11:02:01.372Z,37.33
2018-01-23T11:04:36.745Z,43.30
2018-01-23T11:07:11.618Z,42.53
2018-01-23T11:09:46.701Z,39.13
2018-01-23T11:12:21.689Z,41.85
2018-01-23T11:14:56.663Z,37.97
2018-01-23T11:17:33.040Z,37.93
2018-01-23T11:20:08.223Z,36.65
2018-01-23T11:22:43.718Z,31.23
2018-01-23T11:25:18.934Z,31.87
2018-01-23T11:27:53.742Z,37.53
2018-01-23T11:30:28.718Z,44.07
2018-01-23T11:33:04.026Z,40.23
2018-01-23T11:35:38.731Z,41.63
2018-01-23T11:38:14.026Z,41.53
2018-01-23T11:40:48.842Z,33.80
2018-01-23T11:43:23.752Z,31.12
2018-01-23T11:45:58.716Z,28.40
2018-01-23T11:48:33.768Z,26.57
2018-01-23T11:51:08.622Z,27.73
2018-01-23T11:53:43.758Z,27.30
2018-01-23T11:56:18.977Z,28.65
2018-01-23T11:58:53.917Z,23.73
2018-01-23T12:01:28.427Z,21.70
2018-01-23T12:04:03.778Z,21.10
2018-01-23T12:06:38.286Z,19.67
2018-01-23T12:09:13.284Z,22.80
2018-01-23T12:11:47.988Z,18.43
2018-01-23T12:14:23.264Z,21.07
2018-01-23T12:16:58.364Z,17.90
2018-01-23T12:19:33.230Z,23.17
2018-01-23T12:22:07.987Z,12.95
2018-01-23T12:24:43.045Z,13.93
2018-01-23T12:27:17.922Z,19.20
2018-01-23T12:29:52.882Z,14.90
2018-01-23T12:32:27.891Z,21.03
2018-01-23T12:35:04.196Z,16.15
2018-01-23T12:37:40.282Z,14.80
2018-01-23T12:40:17.498Z,12.73
2018-01-23T12:42:51.982Z,21.07
2018-01-23T12:45:37.834Z,17.70
2018-01-23T12:48:12.643Z,14.73
2018-01-23T12:50:47.871Z,18.40
2018-01-23T12:53:23.044Z,15.10
2018-01-23T12:55:58.091Z,22.30
2018-01-23T12:58:32.890Z,15.77
2018-01-23T13:01:07.987Z,11.63
2018-01-23T13:03:43.013Z,18.70
2018-01-23T13:06:18.260Z,21.20
2018-01-23T13:08:53.069Z,16.13
2018-01-23T13:11:28.242Z,17.83
2018-01-23T13:14:04.238Z,18.25
2018-01-23T13:16:41.383Z,14.00
2018-01-23T13:19:16.602Z,14.38
2018-01-23T13:21:51.078Z,14.90
2018-01-23T13:24:25.487Z,14.27
2018-01-23T13:27:00.338Z,15.57
2018-01-23T13:29:34.615Z,19.70
2018-01-23T13:32:10.403Z,18.05
2018-01-23T13:34:45.292Z,11.67
2018-01-23T13:37:20.702Z,13.77
2018-01-23T13:40:01.536Z,11.85
2018-01-23T13:42:36.482Z,11.07
2018-01-23T13:45:11.471Z,16.50
2018-01-23T13:47:46.569Z,14.00
2018-01-23T13:50:21.616Z,13.97
2018-01-23T13:52:56.491Z,12.37
2018-01-23T13:55:31.604Z,19.23
2018-01-23T13:58:06.545Z,14.93
2018-01-23T14:00:41.554Z,14.47
2018-01-23T14:03:16.245Z,17.90
2018-01-23T14:05:51.604Z,9.70
2018-01-23T14:08:26.384Z,7.20
2018-01-23T14:11:02.358Z,7.27
2018-01-23T14:13:37.356Z,10.60
2018-01-23T14:16:12.010Z,15.07
2018-01-23T14:18:47.038Z,10.70
2018-01-23T14:21:22.284Z,12.33
2018-01-23T14:23:57.194Z,10.50
2018-01-23T14:26:32.070Z,11.03
2018-01-23T14:29:07.038Z,13.67
2018-01-23T14:31:41.998Z,9.63
2018-01-23T14:34:17.036Z,12.23
2018-01-23T14:36:51.886Z,10.33
2018-01-23T14:39:27.468Z,10.63
2018-01-23T14:42:02.689Z,6.87
2018-01-23T14:44:37.517Z,6.67
2018-01-23T14:47:12.268Z,5.30
2018-01-23T14:49:48.128Z,8.87
2018-01-23T14:52:23.379Z,10.90
2018-01-23T14:54:58.222Z,9.13
2018-01-23T14:57:36.812Z,9.77
2018-01-23T15:00:15.750Z,10.67
2018-01-23T15:02:50.660Z,6.47
2018-01-23T15:05:25.207Z,6.53
2018-01-23T15:08:00.068Z,7.17
2018-01-23T15:10:34.865Z,7.63
2018-01-23T15:13:09.260Z,3.80
2018-01-23T15:15:44.121Z,7.33
2018-01-23T15:18:19.848Z,10.97
2018-01-23T15:20:55.108Z,8.70
2018-01-23T15:23:29.919Z,9.20
2018-01-23T15:26:04.711Z,8.33
2018-01-23T15:28:39.268Z,7.97
2018-01-23T15:31:13.834Z,9.70
2018-01-23T15:33:48.519Z,7.37
2018-01-23T15:36:23.561Z,9.40
2018-01-23T15:38:58.828Z,8.00
2018-01-23T15:41:33.722Z,5.87
2018-01-23T15:44:08.167Z,4.90
2018-01-23T15:46:43.142Z,5.40
2018-01-23T15:49:17.966Z,9.03
2018-01-23T15:51:52.815Z,6.17
2018-01-23T15:54:27.641Z,9.77
2018-01-23T15:57:02.618Z,6.37
2018-01-23T15:59:37.045Z,7.90
2018-01-23T16:02:11.575Z,3.40
2018-01-23T16:04:46.333Z,4.70
2018-01-23T16:07:21.134Z,5.10
2018-01-23T16:09:55.792Z,5.90
2018-01-23T16:12:30.465Z,6.27
2018-01-23T16:15:05.473Z,9.53
2018-01-23T16:17:40.044Z,6.43
2018-01-23T16:20:14.624Z,6.97
2018-01-23T16:22:49.529Z,5.43
2018-01-23T16:25:24.077Z,8.77
2018-01-23T16:30:48.155Z,9.53
2018-01-23T16:33:23.339Z,6.37
2018-01-23T16:35:58.191Z,6.10
2018-01-23T16:38:33.005Z,3.57
2018-01-23T16:41:07.725Z,5.80
2018-01-23T16:43:42.731Z,6.83
2018-01-23T16:46:21.648Z,12.83
2018-01-23T16:48:57.202Z,4.50
2018-01-23T16:51:31.778Z,6.93
2018-01-23T16:54:06.006Z,6.20
2018-01-23T16:56:40.939Z,6.90
2018-01-23T16:59:15.866Z,3.83
2018-01-23T17:01:50.794Z,3.57
2018-01-23T17:04:26.718Z,3.60
2018-01-23T17:07:01.267Z,11.53
2018-01-23T17:09:36.271Z,5.37
2018-01-23T17:12:11.709Z,6.47
2018-01-23T17:14:46.406Z,8.00
2018-01-23T17:17:20.993Z,7.33
2018-01-23T17:19:55.860Z,5.90
2018-01-23T17:22:30.684Z,5.10
2018-01-23T17:25:04.875Z,4.00
2018-01-23T17:27:39.986Z,4.40
2018-01-23T17:30:15.153Z,5.40
2018-01-23T17:32:51.473Z,7.17
2018-01-23T17:35:26.412Z,3.73
2018-01-23T17:38:01.643Z,8.07
2018-01-23T17:40:36.799Z,7.53
2018-01-23T17:43:12.083Z,6.80
2018-01-23T17:45:46.894Z,7.30
2018-01-23T17:48:21.672Z,9.30
2018-01-23T17:50:56.500Z,7.27
2018-01-23T17:53:31.368Z,9.37
2018-01-23T17:56:06.307Z,3.53
2018-01-23T17:58:40.895Z,8.40
2018-01-23T18:01:25.685Z,8.13
2018-01-23T18:04:01.310Z,11.10
2018-01-23T18:06:37.104Z,13.00
2018-01-23T18:09:24.208Z,8.00
2018-01-23T18:12:03.792Z,5.00
2018-01-23T18:17:34.532Z,7.37
2018-01-23T18:20:08.991Z,8.40
2018-01-23T18:22:43.921Z,7.87
2018-01-23T18:25:19.473Z,11.97
2018-01-23T18:27:59.729Z,5.70
2018-01-23T18:33:35.083Z,7.93
2018-01-23T18:36:10.381Z,7.10
2018-01-23T18:50:19.270Z,5.30
2018-01-23T18:52:54.194Z,6.93
2018-01-23T18:55:29.194Z,9.20
2018-01-23T18:58:05.503Z,7.30
2018-01-23T19:00:39.857Z,10.03
2018-01-23T19:03:14.268Z,4.00
2018-01-23T19:05:49.229Z,7.40
2018-01-23T19:08:24.526Z,6.23
2018-01-23T19:10:59.546Z,4.03
2018-01-23T19:13:34.671Z,4.30
2018-01-23T19:16:10.084Z,8.60
2018-01-23T19:18:45.092Z,4.87
2018-01-23T19:21:20.430Z,9.77
2018-01-23T19:23:55.190Z,5.73
2018-01-23T19:26:30.245Z,4.20
2018-01-23T19:29:05.588Z,5.47
2018-01-23T19:31:40.454Z,5.70
2018-01-23T19:34:15.707Z,7.60
2018-01-23T19:36:51.254Z,5.20
2018-01-23T19:39:26.169Z,6.67
2018-01-23T19:42:01.524Z,4.13
2018-01-23T19:44:36.597Z,7.53
2018-01-23T19:47:11.610Z,7.80
2018-01-23T19:49:46.790Z,6.23
2018-01-23T19:52:22.233Z,6.10
2018-01-23T19:54:57.413Z,6.53
2018-01-23T19:57:32.513Z,6.73
2018-01-23T20:00:07.176Z,5.35
2018-01-23T20:02:42.338Z,8.47
2018-01-23T20:05:16.842Z,6.13
2018-01-23T20:07:51.630Z,4.00
2018-01-23T20:10:26.705Z,6.37
2018-01-23T20:13:01.831Z,5.83
2018-01-23T20:15:36.711Z,7.87
2018-01-23T20:18:11.715Z,7.70
2018-01-23T20:20:46.848Z,9.80
2018-01-23T20:23:21.998Z,6.50
2018-01-23T20:25:57.431Z,8.27
2018-01-23T20:28:32.399Z,7.70
2018-01-23T20:31:07.698Z,7.40
2018-01-23T20:33:42.069Z,9.90
2018-01-23T20:36:17.352Z,6.15
2018-01-23T20:38:52.020Z,4.90
2018-01-23T20:41:27.290Z,6.43
2018-01-23T20:44:02.115Z,5.90
2018-01-23T20:46:36.975Z,7.23
2018-01-23T20:49:11.909Z,10.77
2018-01-23T20:51:46.644Z,8.70
2018-01-23T20:54:21.682Z,7.55
2018-01-23T20:56:56.576Z,10.43
2018-01-23T20:59:31.474Z,3.78
2018-01-23T21:02:07.600Z,6.90
2018-01-23T21:04:42.887Z,8.53
2018-01-23T21:07:19.190Z,9.40
2018-01-23T21:09:56.632Z,6.33
2018-01-23T21:12:31.042Z,9.80
2018-01-23T21:15:06.586Z,8.15
2018-01-23T21:17:41.858Z,9.50
2018-01-23T21:20:16.665Z,8.83
2018-01-23T21:22:51.719Z,13.57
2018-01-23T21:25:26.260Z,6.93
2018-01-23T21:28:00.985Z,8.87
2018-01-23T21:30:35.779Z,9.67
2018-01-23T21:33:10.170Z,9.88
2018-01-23T21:35:45.228Z,9.03
2018-01-23T21:38:20.490Z,10.65
2018-01-23T21:40:55.819Z,8.53
2018-01-23T21:43:30.242Z,12.13
2018-01-23T21:46:06.208Z,11.30
2018-01-23T21:48:41.341Z,9.63
2018-01-23T21:51:16.930Z,10.07
2018-01-23T21:53:51.916Z,10.47
2018-01-23T21:56:26.880Z,10.90
2018-01-23T21:59:02.195Z,8.93
2018-01-23T22:01:37.178Z,10.17
2018-01-23T22:04:12.130Z,15.70
2018-01-23T22:06:47.235Z,10.90
2018-01-23T22:09:22.854Z,13.77
2018-01-23T22:11:57.866Z,11.17
2018-01-23T22:14:33.137Z,11.83
2018-01-23T22:17:09.338Z,12.73
2018-01-23T22:19:44.494Z,9.10
2018-01-23T22:22:19.181Z,11.43
2018-01-23T22:24:54.352Z,14.17
2018-01-23T22:27:29.439Z,13.63
2018-01-23T22:30:05.324Z,14.30
2018-01-23T22:32:39.929Z,14.93
2018-01-23T22:35:14.308Z,14.63
2018-01-23T22:37:49.410Z,17.67
2018-01-23T22:40:24.752Z,14.23
2018-01-23T22:42:59.464Z,14.93
2018-01-23T22:45:34.126Z,15.47
2018-01-23T22:48:09.446Z,16.70
2018-01-23T22:50:43.847Z,15.90
2018-01-23T22:53:19.237Z,13.70
2018-01-23T22:55:54.065Z,16.93
2018-01-23T22:58:29.153Z,15.60
2018-01-23T23:01:04.276Z,14.20
2018-01-23T23:03:39.954Z,18.27
2018-01-23T23:06:14.977Z,17.15
2018-01-23T23:08:50.068Z,14.30
2018-01-23T23:11:25.174Z,15.73
2018-01-23T23:14:00.146Z,18.30
2018-01-23T23:16:35.253Z,14.00
2018-01-23T23:19:14.142Z,17.40
2018-01-23T23:21:48.962Z,12.95
2018-01-23T23:24:24.167Z,17.08
2018-01-23T23:26:59.339Z,13.67
2018-01-23T23:29:34.359Z,15.60
2018-01-23T23:32:09.656Z,13.57
2018-01-23T23:34:45.118Z,11.03
2018-01-23T23:37:20.222Z,13.13
2018-01-23T23:39:55.030Z,11.73
2018-01-23T23:42:30.099Z,14.70
2018-01-23T23:45:06.383Z,10.23
2018-01-23T23:47:41.411Z,11.60
2018-01-23T23:50:16.662Z,11.93
2018-01-23T23:52:52.078Z,12.30
2018-01-23T23:55:27.215Z,11.87
2018-01-23T23:58:02.294Z,13.80
